createdAt,value
2023-03-17T00:01:56.077Z,24.33
2023-03-17T00:04:25.065Z,13.10
2023-03-17T00:06:53.078Z,19.77
2023-03-17T00:09:22.207Z,21.25
2023-03-17T00:11:50.120Z,16.88
2023-03-17T00:14:19.485Z,13.52
2023-03-17T00:16:51.082Z,28.88
2023-03-17T00:19:32.322Z,15.63
2023-03-17T00:22:01.384Z,18.88
2023-03-17T00:24:29.353Z,16.17
2023-03-17T00:26:56.886Z,19.95
2023-03-17T00:29:25.389Z,15.68
2023-03-17T00:31:53.534Z,30.65
2023-03-17T00:34:23.336Z,17.13
2023-03-17T00:36:51.692Z,19.58
2023-03-17T00:39:19.722Z,17.90
2023-03-17T00:41:50.384Z,24.60
2023-03-17T00:44:18.460Z,33.33
2023-03-17T00:46:46.666Z,21.02
2023-03-17T00:49:19.974Z,22.73
2023-03-17T00:51:47.993Z,28.98
2023-03-17T00:54:17.000Z,20.20
2023-03-17T00:56:45.019Z,12.73
2023-03-17T00:59:20.820Z,26.30
2023-03-17T01:01:49.188Z,16.83
2023-03-17T01:04:16.928Z,22.40
2023-03-17T01:06:44.324Z,13.27
2023-03-17T01:09:18.457Z,10.85
2023-03-17T01:11:47.008Z,20.30
2023-03-17T01:14:15.705Z,18.92
2023-03-17T01:16:44.668Z,17.80
2023-03-17T01:19:15.225Z,20.92
2023-03-17T01:21:42.885Z,20.00
2023-03-17T01:24:11.876Z,15.68
2023-03-17T01:26:40.741Z,23.70
2023-03-17T01:29:08.066Z,20.20
2023-03-17T01:31:35.635Z,14.93
2023-03-17T01:34:04.321Z,21.50
2023-03-17T01:36:31.666Z,16.63
2023-03-17T01:38:59.458Z,8.95
2023-03-17T01:41:26.987Z,26.60
2023-03-17T01:43:54.301Z,22.10
2023-03-17T01:46:25.989Z,13.10
2023-03-17T01:49:23.701Z,12.32
2023-03-17T01:52:09.099Z,21.63
2023-03-17T01:54:42.042Z,10.77
2023-03-17T01:57:17.644Z,22.65
2023-03-17T01:59:55.936Z,15.20
2023-03-17T02:02:31.019Z,13.15
2023-03-17T02:04:59.494Z,7.90
2023-03-17T02:07:28.075Z,13.18
2023-03-17T02:09:57.128Z,14.55
2023-03-17T02:12:27.795Z,15.73
2023-03-17T02:14:55.210Z,17.27
2023-03-17T02:17:26.100Z,21.83
2023-03-17T02:19:54.034Z,17.85
2023-03-17T02:22:24.024Z,16.95
2023-03-17T02:24:55.712Z,21.73
2023-03-17T02:27:31.130Z,15.43
2023-03-17T02:29:59.760Z,18.73
2023-03-17T02:32:27.860Z,12.82
2023-03-17T02:34:56.066Z,17.05
2023-03-17T02:37:24.045Z,19.45
2023-03-17T02:39:53.956Z,11.10
2023-03-17T02:42:22.078Z,16.88
2023-03-17T02:44:49.739Z,16.33
2023-03-17T02:47:19.831Z,14.60
2023-03-17T02:49:47.476Z,19.33
2023-03-17T02:52:14.925Z,21.80
2023-03-17T02:54:42.744Z,16.80
2023-03-17T02:57:11.119Z,18.35
2023-03-17T02:59:38.551Z,10.35
2023-03-17T03:02:06.281Z,18.90
2023-03-17T03:04:33.724Z,17.85
2023-03-17T03:07:01.496Z,13.63
2023-03-17T03:09:29.764Z,23.63
2023-03-17T03:11:57.172Z,23.15
2023-03-17T03:14:24.589Z,18.27
2023-03-17T03:16:52.323Z,18.23
2023-03-17T03:19:19.850Z,19.55
2023-03-17T03:21:47.225Z,21.00
2023-03-17T03:24:14.488Z,16.20
2023-03-17T03:26:41.742Z,26.17
2023-03-17T03:29:09.088Z,12.60
2023-03-17T03:31:36.422Z,19.80
2023-03-17T03:34:04.129Z,14.35
2023-03-17T03:36:32.320Z,22.50
2023-03-17T03:39:00.983Z,12.30
2023-03-17T03:41:29.326Z,17.38
2023-03-17T03:43:56.864Z,21.30
2023-03-17T03:46:24.204Z,18.05
2023-03-17T03:48:51.487Z,24.75
2023-03-17T03:51:18.781Z,23.45
2023-03-17T03:53:48.197Z,20.58
2023-03-17T03:56:15.798Z,21.27
2023-03-17T03:58:43.053Z,23.27
2023-03-17T04:01:10.550Z,15.80
2023-03-17T04:03:38.187Z,18.17
2023-03-17T04:06:05.993Z,22.73
2023-03-17T04:08:33.292Z,23.30
2023-03-17T04:11:00.701Z,26.63
2023-03-17T04:13:28.044Z,21.73
2023-03-17T04:15:55.325Z,26.35
2023-03-17T04:18:22.830Z,19.52
2023-03-17T04:20:50.598Z,17.75
2023-03-17T04:23:17.922Z,24.73
2023-03-17T04:25:45.349Z,19.00
2023-03-17T04:28:12.657Z,20.08
2023-03-17T04:30:43.199Z,21.90
2023-03-17T04:33:10.605Z,13.43
2023-03-17T04:35:38.169Z,20.23
2023-03-17T04:38:05.504Z,21.42
2023-03-17T04:40:32.990Z,16.63
2023-03-17T04:43:02.967Z,23.00
2023-03-17T04:45:30.763Z,17.55
2023-03-17T04:47:58.304Z,25.02
2023-03-17T04:50:25.687Z,27.05
2023-03-17T04:52:53.000Z,17.45
2023-03-17T04:55:21.120Z,23.45
2023-03-17T04:57:48.432Z,22.50
2023-03-17T05:00:16.023Z,23.23
2023-03-17T05:02:43.273Z,22.20
2023-03-17T05:05:10.611Z,22.08
2023-03-17T05:07:37.892Z,24.55
2023-03-17T05:10:06.757Z,13.73
2023-03-17T05:12:34.029Z,14.70
2023-03-17T05:15:01.334Z,11.45
2023-03-17T05:17:28.644Z,13.93
2023-03-17T05:19:55.929Z,13.35
2023-03-17T05:22:23.263Z,17.30
2023-03-17T05:24:50.626Z,13.90
2023-03-17T05:27:17.996Z,9.57
2023-03-17T05:29:45.284Z,11.30
2023-03-17T05:32:13.496Z,14.80
2023-03-17T05:34:40.865Z,12.30
2023-03-17T05:37:08.697Z,13.05
2023-03-17T05:39:36.035Z,11.25
2023-03-17T05:42:03.446Z,18.00
2023-03-17T05:44:30.990Z,13.68
2023-03-17T05:46:59.672Z,11.63
2023-03-17T05:49:28.293Z,13.20
2023-03-17T05:51:55.991Z,9.98
2023-03-17T05:54:24.084Z,13.63
2023-03-17T05:56:51.536Z,9.88
2023-03-17T05:59:18.870Z,8.98
2023-03-17T06:01:46.218Z,11.35
2023-03-17T06:04:13.566Z,14.40
2023-03-17T06:06:41.229Z,11.55
2023-03-17T06:09:08.532Z,15.18
2023-03-17T06:11:36.865Z,15.20
2023-03-17T06:14:04.365Z,20.58
2023-03-17T06:16:33.175Z,16.95
2023-03-17T06:19:00.948Z,24.95
2023-03-17T06:21:28.382Z,20.23
2023-03-17T06:23:55.670Z,19.52
2023-03-17T06:26:22.949Z,20.80
2023-03-17T06:28:50.450Z,24.75
2023-03-17T06:31:18.021Z,18.70
2023-03-17T06:33:45.363Z,20.35
2023-03-17T06:36:12.668Z,20.33
2023-03-17T06:38:40.579Z,19.55
2023-03-17T06:41:09.113Z,20.05
2023-03-17T06:43:36.400Z,18.58
2023-03-17T06:46:03.933Z,21.58
2023-03-17T06:48:31.411Z,22.27
2023-03-17T06:50:58.677Z,19.63
2023-03-17T06:53:26.166Z,26.88
2023-03-17T06:55:53.774Z,22.95
2023-03-17T06:58:21.705Z,22.50
2023-03-17T07:00:49.167Z,24.85
2023-03-17T07:03:16.881Z,20.58
2023-03-17T07:05:44.552Z,21.23
2023-03-17T07:08:13.250Z,24.95
2023-03-17T07:10:43.623Z,23.85
2023-03-17T07:13:10.924Z,30.00
2023-03-17T07:15:38.846Z,30.55
2023-03-17T07:18:07.026Z,34.17
2023-03-17T07:20:34.473Z,27.13
2023-03-17T07:23:01.836Z,28.17
2023-03-17T07:25:29.476Z,27.40
2023-03-17T07:27:57.064Z,27.52
2023-03-17T07:30:24.345Z,26.33
2023-03-17T07:32:51.749Z,32.28
2023-03-17T07:35:19.383Z,28.63
2023-03-17T07:37:47.367Z,22.08
2023-03-17T07:40:14.857Z,21.73
2023-03-17T07:42:42.355Z,29.10
2023-03-17T07:45:10.307Z,21.20
2023-03-17T07:47:37.638Z,24.23
2023-03-17T07:50:05.918Z,24.35
2023-03-17T07:52:34.367Z,21.80
2023-03-17T07:55:02.641Z,19.40
2023-03-17T07:57:29.970Z,23.90
2023-03-17T07:59:57.747Z,19.23
2023-03-17T08:02:25.368Z,24.40
2023-03-17T08:04:53.908Z,23.23
2023-03-17T08:07:21.288Z,20.73
2023-03-17T08:09:48.648Z,21.73
2023-03-17T08:12:15.987Z,19.25
2023-03-17T08:14:43.319Z,21.80
2023-03-17T08:17:10.760Z,19.73
2023-03-17T08:19:38.228Z,13.23
2023-03-17T08:22:05.618Z,17.80
2023-03-17T08:24:33.110Z,15.85
2023-03-17T08:27:01.095Z,15.18
2023-03-17T08:29:29.113Z,15.65
2023-03-17T08:31:57.353Z,16.73
2023-03-17T08:34:26.476Z,15.77
2023-03-17T08:36:53.959Z,14.90
2023-03-17T08:39:21.493Z,14.60
2023-03-17T08:41:49.010Z,13.40
2023-03-17T08:44:16.520Z,18.17
2023-03-17T08:46:44.028Z,16.33
2023-03-17T08:49:12.639Z,16.20
2023-03-17T08:51:40.953Z,14.45
2023-03-17T08:54:08.356Z,12.68
2023-03-17T08:56:37.045Z,9.90
2023-03-17T08:59:06.661Z,7.90
2023-03-17T09:01:34.913Z,12.80
2023-03-17T09:04:02.775Z,10.80
2023-03-17T09:06:31.553Z,15.10
2023-03-17T09:09:00.126Z,13.00
2023-03-17T09:11:29.724Z,14.88
2023-03-17T09:13:57.278Z,14.15
2023-03-17T09:16:25.016Z,9.95
2023-03-17T09:18:52.682Z,21.23
2023-03-17T09:21:21.208Z,11.57
2023-03-17T09:23:48.661Z,10.07
2023-03-17T09:26:16.361Z,9.82
2023-03-17T09:28:44.679Z,9.55
2023-03-17T09:31:12.774Z,14.75
2023-03-17T09:33:41.747Z,7.97
2023-03-17T09:36:10.670Z,7.25
2023-03-17T09:38:38.475Z,9.55
2023-03-17T09:41:19.733Z,7.45
2023-03-17T09:43:56.263Z,5.55
2023-03-17T09:47:00.846Z,7.47
2023-03-17T09:49:36.961Z,8.27
2023-03-17T09:52:04.672Z,8.15
2023-03-17T09:54:36.289Z,6.22
2023-03-17T09:57:12.411Z,6.70
2023-03-17T09:59:47.067Z,5.15
2023-03-17T10:02:25.328Z,5.80
2023-03-17T10:04:53.191Z,6.07
2023-03-17T10:07:48.007Z,5.97
2023-03-17T10:10:25.145Z,6.90
2023-03-17T10:13:03.304Z,6.55
2023-03-17T10:15:36.031Z,6.80
2023-03-17T10:18:11.304Z,7.55
2023-03-17T10:20:53.498Z,7.55
2023-03-17T10:23:25.978Z,5.50
2023-03-17T10:25:56.500Z,6.43
2023-03-17T10:28:29.641Z,3.83
2023-03-17T10:31:13.157Z,3.90
2023-03-17T10:33:41.036Z,5.78
2023-03-17T10:36:10.739Z,5.25
2023-03-17T10:38:38.142Z,8.20
2023-03-17T10:41:13.423Z,8.40
2023-03-17T10:43:50.696Z,6.15
2023-03-17T10:48:57.416Z,2.58
2023-03-17T10:51:32.815Z,3.40
2023-03-17T10:54:04.184Z,3.60
2023-03-17T10:56:37.610Z,5.85
2023-03-17T10:59:17.299Z,5.60
2023-03-17T11:01:51.830Z,4.05
2023-03-17T11:04:38.178Z,3.80
2023-03-17T11:07:16.151Z,4.95
2023-03-17T11:09:44.098Z,7.18
2023-03-17T11:12:26.383Z,5.50
2023-03-17T11:15:02.065Z,9.55
2023-03-17T11:17:45.497Z,12.10
2023-03-17T11:20:13.276Z,5.70
2023-03-17T11:22:42.927Z,5.38
2023-03-17T11:25:21.173Z,7.53
2023-03-17T11:27:48.551Z,4.68
2023-03-17T11:30:34.607Z,9.23
2023-03-17T11:33:10.360Z,8.13
2023-03-17T11:36:02.060Z,3.90
2023-03-17T11:38:33.116Z,4.43
2023-03-17T11:41:18.461Z,6.93
2023-03-17T11:44:06.987Z,9.02
2023-03-17T11:46:49.324Z,8.07
2023-03-17T11:49:35.820Z,11.10
2023-03-17T11:52:35.685Z,5.15
2023-03-17T11:55:14.954Z,9.70
2023-03-17T11:57:51.815Z,7.38
2023-03-17T12:00:19.585Z,7.68
2023-03-17T12:03:14.712Z,26.58
2023-03-17T12:05:44.844Z,16.50
2023-03-17T12:08:15.261Z,5.72
2023-03-17T12:10:48.072Z,25.02
2023-03-17T12:13:34.513Z,9.40
2023-03-17T12:16:19.392Z,23.77
2023-03-17T12:19:26.190Z,10.95
2023-03-17T12:21:57.616Z,24.17
2023-03-17T12:24:40.375Z,20.52
2023-03-17T12:27:27.851Z,57.50
2023-03-17T12:30:10.626Z,29.05
2023-03-17T12:32:53.412Z,13.88
2023-03-17T12:35:27.789Z,10.55
2023-03-17T12:37:58.064Z,13.65
2023-03-17T12:40:28.811Z,11.70
2023-03-17T12:43:10.194Z,9.80
2023-03-17T12:45:44.544Z,11.43
2023-03-17T12:48:20.674Z,14.35
2023-03-17T12:51:27.394Z,7.60
2023-03-17T12:53:55.216Z,7.32
2023-03-17T12:56:30.806Z,8.45
2023-03-17T12:59:14.866Z,10.18
2023-03-17T13:02:06.861Z,5.88
2023-03-17T13:04:36.597Z,9.88
2023-03-17T13:07:19.063Z,11.07
2023-03-17T13:09:55.197Z,5.32
2023-03-17T13:12:40.801Z,6.45
2023-03-17T13:15:26.722Z,7.57
2023-03-17T13:18:12.599Z,5.55
2023-03-17T13:20:42.344Z,12.77
2023-03-17T13:23:14.727Z,13.00
2023-03-17T13:25:42.831Z,12.73
2023-03-17T13:28:13.243Z,5.50
2023-03-17T13:30:40.672Z,5.25
2023-03-17T13:33:11.295Z,9.63
2023-03-17T13:36:18.354Z,7.80
2023-03-17T13:39:10.155Z,11.43
2023-03-17T13:42:17.902Z,6.28
2023-03-17T13:44:48.930Z,10.73
2023-03-17T13:47:31.772Z,6.03
2023-03-17T13:50:21.281Z,14.25
2023-03-17T13:53:02.454Z,8.68
2023-03-17T13:55:39.511Z,2.63
2023-03-17T13:58:09.863Z,9.23
2023-03-17T14:00:45.239Z,7.88
2023-03-17T14:03:37.778Z,5.03
2023-03-17T14:06:08.027Z,2.83
2023-03-17T14:08:37.342Z,6.45
2023-03-17T14:11:15.879Z,4.13
2023-03-17T14:13:48.882Z,7.82
2023-03-17T14:16:24.126Z,4.72
2023-03-17T14:19:00.632Z,6.00
2023-03-17T14:21:33.289Z,7.55
2023-03-17T14:24:14.052Z,11.43
2023-03-17T14:26:41.525Z,8.30
2023-03-17T14:29:14.314Z,2.60
2023-03-17T14:31:43.095Z,5.82
2023-03-17T14:34:14.729Z,5.85
2023-03-17T14:36:42.482Z,3.17
2023-03-17T14:39:21.906Z,2.25
2023-03-17T14:42:01.713Z,2.80
2023-03-17T14:44:39.815Z,2.92
2023-03-17T14:47:27.872Z,2.88
2023-03-17T14:49:55.518Z,4.78
2023-03-17T14:52:32.507Z,6.95
2023-03-17T14:55:00.931Z,6.78
2023-03-17T14:57:32.773Z,5.55
2023-03-17T15:00:02.281Z,2.88
2023-03-17T15:02:37.763Z,3.40
2023-03-17T15:05:36.900Z,3.42
2023-03-17T15:08:35.775Z,6.05
2023-03-17T15:11:05.751Z,2.28
2023-03-17T15:13:36.412Z,4.30
2023-03-17T15:16:14.977Z,5.75
2023-03-17T15:18:43.025Z,3.42
2023-03-17T15:21:53.349Z,4.20
2023-03-17T15:24:20.827Z,4.40
2023-03-17T15:26:48.189Z,6.18
2023-03-17T15:29:15.832Z,5.25
2023-03-17T15:31:43.221Z,3.65
2023-03-17T15:34:13.902Z,7.32
2023-03-17T15:36:43.475Z,9.75
2023-03-17T15:39:11.052Z,14.15
2023-03-17T15:41:38.405Z,6.55
2023-03-17T15:44:06.265Z,4.75
2023-03-17T15:46:33.737Z,7.97
2023-03-17T15:49:01.213Z,9.27
2023-03-17T15:51:28.507Z,5.35
2023-03-17T15:53:55.769Z,9.07
2023-03-17T15:56:23.070Z,9.25
2023-03-17T15:58:52.281Z,5.60
2023-03-17T16:01:20.719Z,6.10
2023-03-17T16:03:48.680Z,5.65
2023-03-17T16:06:19.089Z,5.38
2023-03-17T16:08:46.530Z,9.10
2023-03-17T16:11:28.024Z,11.20
2023-03-17T16:13:57.379Z,8.05
2023-03-17T16:16:45.759Z,7.13
2023-03-17T16:19:22.592Z,7.30
2023-03-17T16:21:50.007Z,14.93
2023-03-17T16:24:24.839Z,10.65
2023-03-17T16:26:53.073Z,15.13
2023-03-17T16:29:21.311Z,8.15
2023-03-17T16:31:50.900Z,19.52
2023-03-17T16:34:21.096Z,10.13
2023-03-17T16:36:48.857Z,10.02
2023-03-17T16:39:22.446Z,9.90
2023-03-17T16:41:50.749Z,6.72
2023-03-17T16:44:21.202Z,10.50
2023-03-17T16:46:49.147Z,8.00
2023-03-17T16:49:18.830Z,13.00
2023-03-17T16:51:46.339Z,11.82
2023-03-17T16:54:13.726Z,13.82
2023-03-17T16:56:42.139Z,11.70
2023-03-17T16:59:20.789Z,10.85
2023-03-17T17:01:48.516Z,7.57
2023-03-17T17:04:15.713Z,5.43
2023-03-17T17:06:43.064Z,14.98
2023-03-17T17:09:10.886Z,8.07
2023-03-17T17:11:38.157Z,11.60
2023-03-17T17:14:05.580Z,11.10
2023-03-17T17:16:36.400Z,9.75
2023-03-17T17:19:09.488Z,10.63
2023-03-17T17:21:36.779Z,13.32
2023-03-17T17:24:04.127Z,11.00
2023-03-17T17:26:31.442Z,17.10
2023-03-17T17:28:58.760Z,14.35
2023-03-17T17:31:26.436Z,10.88
2023-03-17T17:33:53.749Z,13.48
2023-03-17T17:36:21.258Z,12.45
2023-03-17T17:38:48.652Z,16.15
2023-03-17T17:41:17.014Z,11.43
2023-03-17T17:43:46.162Z,10.63
2023-03-17T17:46:22.153Z,14.52
2023-03-17T17:48:50.107Z,8.43
2023-03-17T17:51:17.478Z,15.73
2023-03-17T17:53:44.857Z,7.20
2023-03-17T17:56:16.552Z,10.43
2023-03-17T17:58:45.239Z,11.45
2023-03-17T18:01:14.173Z,9.90
2023-03-17T18:03:43.081Z,22.48
2023-03-17T18:06:13.181Z,9.77
2023-03-17T18:08:41.232Z,12.57
2023-03-17T18:11:08.917Z,9.05
2023-03-17T18:13:38.905Z,13.65
2023-03-17T18:16:09.869Z,13.02
2023-03-17T18:18:40.546Z,14.07
2023-03-17T18:21:08.429Z,14.98
2023-03-17T18:23:36.452Z,10.77
2023-03-17T18:26:06.155Z,9.48
2023-03-17T18:28:34.043Z,17.70
2023-03-17T18:31:07.188Z,11.50
2023-03-17T18:33:34.785Z,11.25
2023-03-17T18:36:05.965Z,13.27
2023-03-17T18:38:33.849Z,13.02
2023-03-17T18:41:01.721Z,14.57
2023-03-17T18:43:29.031Z,13.82
2023-03-17T18:45:56.438Z,16.83
2023-03-17T18:48:23.941Z,14.95
2023-03-17T18:50:51.336Z,12.73
2023-03-17T18:53:18.851Z,12.75
2023-03-17T18:55:46.985Z,19.00
2023-03-17T18:58:14.571Z,10.35
2023-03-17T19:00:41.996Z,25.20
2023-03-17T19:03:09.347Z,17.13
2023-03-17T19:05:38.362Z,13.65
2023-03-17T19:08:06.629Z,22.35
2023-03-17T19:10:34.486Z,19.42
2023-03-17T19:13:02.112Z,25.50
2023-03-17T19:15:29.848Z,18.23
2023-03-17T19:17:57.315Z,26.23
2023-03-17T19:20:24.614Z,25.42
2023-03-17T19:22:53.281Z,16.50
2023-03-17T19:25:21.379Z,22.15
2023-03-17T19:27:49.004Z,12.98
2023-03-17T19:30:16.399Z,29.55
2023-03-17T19:32:44.184Z,20.55
2023-03-17T19:35:11.770Z,17.08
2023-03-17T19:37:39.322Z,20.48
2023-03-17T19:40:09.675Z,18.40
2023-03-17T19:42:37.189Z,18.23
2023-03-17T19:45:06.073Z,21.60
2023-03-17T19:47:33.670Z,19.55
2023-03-17T19:50:01.673Z,26.35
2023-03-17T19:52:29.154Z,27.25
2023-03-17T19:54:57.016Z,16.42
2023-03-17T19:57:24.405Z,21.92
2023-03-17T19:59:52.064Z,28.27
2023-03-17T20:02:20.553Z,19.15
2023-03-17T20:04:49.132Z,16.90
2023-03-17T20:07:16.550Z,20.08
2023-03-17T20:09:46.252Z,34.95
2023-03-17T20:12:14.028Z,17.33
2023-03-17T20:14:41.845Z,19.58
2023-03-17T20:17:09.946Z,15.10
2023-03-17T20:19:39.459Z,20.42
2023-03-17T20:22:07.631Z,24.15
2023-03-17T20:24:36.362Z,21.95
2023-03-17T20:27:05.197Z,30.98
2023-03-17T20:29:33.029Z,29.48
2023-03-17T20:32:02.164Z,24.80
2023-03-17T20:34:29.644Z,22.00
2023-03-17T20:36:57.058Z,28.52
2023-03-17T20:39:24.705Z,29.42
2023-03-17T20:41:52.278Z,34.47
2023-03-17T20:44:19.973Z,25.48
2023-03-17T20:46:47.658Z,28.25
2023-03-17T20:49:17.245Z,27.25
2023-03-17T20:51:46.229Z,19.65
2023-03-17T20:54:14.058Z,32.58
2023-03-17T20:56:41.423Z,17.48
2023-03-17T20:59:09.906Z,26.63
2023-03-17T21:01:38.690Z,38.92
2023-03-17T21:04:08.927Z,31.25
2023-03-17T21:06:38.410Z,24.05
2023-03-17T21:09:06.166Z,23.67
2023-03-17T21:11:33.673Z,26.08
2023-03-17T21:14:03.312Z,24.35
2023-03-17T21:16:31.096Z,22.10
2023-03-17T21:18:58.863Z,29.88
2023-03-17T21:21:27.284Z,34.85
2023-03-17T21:23:55.701Z,24.65
2023-03-17T21:26:23.038Z,32.08
2023-03-17T21:28:50.447Z,19.77
2023-03-17T21:31:18.189Z,22.60
2023-03-17T21:33:48.742Z,21.60
2023-03-17T21:36:16.849Z,21.90
2023-03-17T21:38:44.180Z,20.60
2023-03-17T21:41:33.144Z,24.70
2023-03-17T21:44:02.218Z,24.38
2023-03-17T21:46:31.578Z,22.30
2023-03-17T21:48:59.407Z,19.20
2023-03-17T21:51:27.354Z,24.17
2023-03-17T21:53:55.036Z,24.08
2023-03-17T21:56:22.484Z,21.35
2023-03-17T21:58:49.928Z,23.77
2023-03-17T22:01:19.005Z,18.85
2023-03-17T22:03:46.430Z,18.23
2023-03-17T22:06:15.916Z,14.65
2023-03-17T22:08:44.001Z,25.25
2023-03-17T22:11:17.198Z,23.50
2023-03-17T22:13:45.628Z,20.95
2023-03-17T22:16:14.334Z,21.15
2023-03-17T22:18:42.008Z,21.83
2023-03-17T22:21:10.125Z,21.73
2023-03-17T22:23:41.541Z,18.73
2023-03-17T22:26:13.256Z,16.85
2023-03-17T22:28:41.514Z,14.70
2023-03-17T22:31:27.137Z,15.88
2023-03-17T22:33:57.633Z,19.67
2023-03-17T22:36:26.716Z,17.40
2023-03-17T22:38:54.606Z,15.98
2023-03-17T22:41:24.607Z,11.18
2023-03-17T22:43:51.971Z,22.98
2023-03-17T22:46:20.145Z,13.63
2023-03-17T22:48:47.599Z,18.73
2023-03-17T22:51:18.573Z,15.13
2023-03-17T22:53:47.135Z,11.35
2023-03-17T22:56:16.404Z,13.85
2023-03-17T22:58:44.837Z,14.50
2023-03-17T23:01:14.215Z,18.73
2023-03-17T23:03:42.029Z,19.58
2023-03-17T23:06:09.728Z,22.73
2023-03-17T23:08:39.062Z,15.15
2023-03-17T23:11:10.581Z,12.30
2023-03-17T23:13:39.754Z,19.88
2023-03-17T23:16:08.357Z,13.80
2023-03-17T23:18:36.161Z,17.40
2023-03-17T23:21:04.605Z,15.77
2023-03-17T23:23:32.610Z,24.38
2023-03-17T23:26:00.380Z,17.17
2023-03-17T23:28:27.789Z,18.10
2023-03-17T23:30:55.447Z,15.88
2023-03-17T23:33:23.991Z,22.50
2023-03-17T23:35:52.525Z,21.08
2023-03-17T23:38:21.681Z,23.17
2023-03-17T23:40:49.701Z,25.80
2023-03-17T23:43:17.354Z,18.85
2023-03-17T23:45:45.494Z,15.13
2023-03-17T23:48:12.946Z,20.25
2023-03-17T23:50:42.329Z,19.92
2023-03-17T23:53:09.822Z,23.35
2023-03-17T23:55:37.747Z,22.67
2023-03-17T23:58:05.057Z,18.50
